NKS163 MDST-KFLL
Flight info
| Callsign | NKS163 |
|---|---|
| Flight time | 2h 3m |
| Altitude | 34000 |
| Route | PEKSA2 PTA DCT MALVN Y396 RUMFO Y441 ZQA OLAHS3 |
| Aircraft | A320/M-SDE3FGHIRWY/LB1 |
Departure
| Time | 2026-05-05 02:56 |
|---|---|
| Airport | Cibao International Airport (MDST) |
Arrival
| Time | 2026-05-05 04:59 |
|---|---|
| Airport | Fort Lauderdale Hollywood International Airport (KFLL) |
| Time | Latitude | Longitude | Altitude | Speed | Heading |
|---|---|---|---|---|---|
| 2026-05-05 02:32 | 19.40256 | -70.60100 | 572 ft | 0 kts | 233° |
| 2026-05-05 02:43 | 19.40257 | -70.60099 | 572 ft | 2 kts | 233° |
| 2026-05-05 02:43 | 19.40272 | -70.60078 | 573 ft | 4 kts | 231° |
| 2026-05-05 02:43 | 19.40290 | -70.60056 | 571 ft | 4 kts | 234° |
| 2026-05-05 02:44 | 19.40304 | -70.60032 | 571 ft | 4 kts | 244° |
| 2026-05-05 02:44 | 19.40313 | -70.60010 | 574 ft | 1 kts | 249° |
| 2026-05-05 02:44 | 19.40315 | -70.60005 | 573 ft | 0 kts | 249° |
| 2026-05-05 02:48 | 19.40315 | -70.60009 | 574 ft | 1 kts | 264° |
| 2026-05-05 02:48 | 19.40318 | -70.60017 | 574 ft | 2 kts | 295° |
| 2026-05-05 02:48 | 19.40331 | -70.60046 | 571 ft | 7 kts | 291° |
| 2026-05-05 02:49 | 19.40346 | -70.60104 | 574 ft | 9 kts | 285° |
| 2026-05-05 02:49 | 19.40362 | -70.60172 | 574 ft | 10 kts | 282° |
| 2026-05-05 02:49 | 19.40377 | -70.60249 | 572 ft | 11 kts | 281° |
| 2026-05-05 02:49 | 19.40393 | -70.60335 | 573 ft | 13 kts | 282° |
| 2026-05-05 02:50 | 19.40413 | -70.60428 | 578 ft | 14 kts | 283° |
| 2026-05-05 02:50 | 19.40426 | -70.60484 | 574 ft | 0 kts | 284° |
| 2026-05-05 02:50 | 19.40426 | -70.60487 | 574 ft | 0 kts | 273° |
| 2026-05-05 02:50 | 19.40424 | -70.60489 | 574 ft | 1 kts | 243° |
| 2026-05-05 02:51 | 19.40418 | -70.60486 | 574 ft | 1 kts | 169° |
| 2026-05-05 02:51 | 19.40419 | -70.60477 | 574 ft | 3 kts | 79° |
| 2026-05-05 02:51 | 19.40449 | -70.60450 | 574 ft | 9 kts | 29° |
| 2026-05-05 02:51 | 19.40535 | -70.60426 | 575 ft | 17 kts | 12° |
| 2026-05-05 02:52 | 19.40603 | -70.60500 | 577 ft | 18 kts | 296° |
| 2026-05-05 02:52 | 19.40646 | -70.60641 | 579 ft | 22 kts | 285° |
| 2026-05-05 02:52 | 19.40688 | -70.60819 | 583 ft | 27 kts | 283° |
| 2026-05-05 02:52 | 19.40735 | -70.61030 | 581 ft | 31 kts | 283° |
| 2026-05-05 02:53 | 19.40786 | -70.61263 | 580 ft | 33 kts | 283° |
| 2026-05-05 02:53 | 19.40830 | -70.61457 | 581 ft | 25 kts | 283° |
| 2026-05-05 02:53 | 19.40846 | -70.61620 | 580 ft | 19 kts | 260° |
| 2026-05-05 02:53 | 19.40866 | -70.61650 | 580 ft | 6 kts | 93° |
| 2026-05-05 02:54 | 19.40864 | -70.61623 | 580 ft | 2 kts | 100° |
| 2026-05-05 02:55 | 19.40861 | -70.61606 | 580 ft | 19 kts | 101° |
| 2026-05-05 02:55 | 19.40776 | -70.61215 | 580 ft | 87 kts | 103° |
| 2026-05-05 02:55 | 19.40598 | -70.60400 | 573 ft | 138 kts | 103° |
| 2026-05-05 02:55 | 19.40345 | -70.59309 | 871 ft | 151 kts | 104° |
| 2026-05-05 02:56 | 19.40012 | -70.58326 | 1600 ft | 143 kts | 112° |
| 2026-05-05 02:56 | 19.39717 | -70.57298 | 2061 ft | 148 kts | 104° |
| 2026-05-05 02:56 | 19.39505 | -70.56206 | 2424 ft | 159 kts | 103° |
| 2026-05-05 02:56 | 19.39270 | -70.54972 | 2613 ft | 181 kts | 101° |
| 2026-05-05 02:57 | 19.38999 | -70.53589 | 2761 ft | 202 kts | 103° |
| 2026-05-05 02:57 | 19.38688 | -70.52064 | 2956 ft | 224 kts | 103° |
| 2026-05-05 02:57 | 19.38324 | -70.50364 | 3226 ft | 249 kts | 106° |
| 2026-05-05 02:57 | 19.37438 | -70.48749 | 3705 ft | 263 kts | 140° |
| 2026-05-05 02:58 | 19.35776 | -70.47964 | 4419 ft | 270 kts | 175° |
| 2026-05-05 02:58 | 19.33933 | -70.48326 | 5158 ft | 275 kts | 209° |
| 2026-05-05 02:58 | 19.32573 | -70.49734 | 5897 ft | 279 kts | 243° |
| 2026-05-05 02:58 | 19.32164 | -70.51724 | 6659 ft | 282 kts | 276° |
| 2026-05-05 02:59 | 19.32851 | -70.53645 | 7356 ft | 285 kts | 309° |
| 2026-05-05 02:59 | 19.34305 | -70.55080 | 8044 ft | 290 kts | 323° |
| 2026-05-05 02:59 | 19.35934 | -70.56374 | 8749 ft | 294 kts | 323° |
| 2026-05-05 02:59 | 19.37579 | -70.57677 | 9468 ft | 298 kts | 323° |
| 2026-05-05 03:00 | 19.39339 | -70.58875 | 10113 ft | 303 kts | 335° |
| 2026-05-05 03:00 | 19.41329 | -70.59650 | 10753 ft | 307 kts | 345° |
| 2026-05-05 03:00 | 19.43511 | -70.59999 | 10979 ft | 329 kts | 360° |
| 2026-05-05 03:00 | 19.45821 | -70.59869 | 11308 ft | 342 kts | 4° |
| 2026-05-05 03:01 | 19.48218 | -70.59675 | 11857 ft | 347 kts | 4° |
| 2026-05-05 03:01 | 19.50641 | -70.59457 | 12471 ft | 351 kts | 4° |
| 2026-05-05 03:01 | 19.53115 | -70.59221 | 13071 ft | 355 kts | 4° |
| 2026-05-05 03:01 | 19.55550 | -70.58984 | 13644 ft | 358 kts | 4° |
| 2026-05-05 03:02 | 19.58056 | -70.58737 | 14193 ft | 362 kts | 4° |
| 2026-05-05 03:02 | 19.60568 | -70.58495 | 14711 ft | 365 kts | 4° |
| 2026-05-05 03:02 | 19.63082 | -70.58256 | 15229 ft | 368 kts | 3° |
| 2026-05-05 03:02 | 19.65613 | -70.58017 | 15744 ft | 370 kts | 3° |
| 2026-05-05 03:03 | 19.68215 | -70.57773 | 16256 ft | 373 kts | 2° |
| 2026-05-05 03:03 | 19.70802 | -70.57548 | 16758 ft | 375 kts | 359° |
| 2026-05-05 03:03 | 19.73373 | -70.57758 | 17279 ft | 373 kts | 345° |
| 2026-05-05 03:03 | 19.75823 | -70.58595 | 17819 ft | 370 kts | 331° |
| 2026-05-05 03:04 | 19.78016 | -70.60002 | 18352 ft | 367 kts | 318° |
| 2026-05-05 03:04 | 19.79843 | -70.61882 | 18809 ft | 365 kts | 307° |
| 2026-05-05 03:04 | 19.81473 | -70.63917 | 19252 ft | 367 kts | 308° |
| 2026-05-05 03:04 | 19.83134 | -70.65984 | 19700 ft | 370 kts | 308° |
| 2026-05-05 03:05 | 19.84809 | -70.68070 | 20146 ft | 373 kts | 308° |
| 2026-05-05 03:05 | 19.86521 | -70.70204 | 20584 ft | 375 kts | 308° |
| 2026-05-05 03:05 | 19.88222 | -70.72322 | 21022 ft | 378 kts | 308° |
| 2026-05-05 03:05 | 19.89935 | -70.74453 | 21446 ft | 381 kts | 309° |
| 2026-05-05 03:06 | 19.91634 | -70.76567 | 21859 ft | 383 kts | 309° |
| 2026-05-05 03:06 | 19.93394 | -70.78757 | 22269 ft | 386 kts | 309° |
| 2026-05-05 03:06 | 19.95149 | -70.80941 | 22664 ft | 389 kts | 309° |
| 2026-05-05 03:06 | 19.96887 | -70.83106 | 23073 ft | 391 kts | 309° |
| 2026-05-05 03:07 | 19.98662 | -70.85318 | 23479 ft | 394 kts | 309° |
| 2026-05-05 03:07 | 20.00470 | -70.87571 | 23836 ft | 397 kts | 309° |
| 2026-05-05 03:07 | 20.02257 | -70.89800 | 24169 ft | 399 kts | 309° |
| 2026-05-05 03:07 | 20.04071 | -70.92064 | 24489 ft | 401 kts | 309° |
| 2026-05-05 03:08 | 20.05885 | -70.94334 | 24823 ft | 403 kts | 309° |
| 2026-05-05 03:08 | 20.07698 | -70.96607 | 25154 ft | 405 kts | 308° |
| 2026-05-05 03:08 | 20.09525 | -70.98897 | 25499 ft | 407 kts | 308° |
| 2026-05-05 03:08 | 20.11365 | -71.01200 | 25839 ft | 409 kts | 308° |
| 2026-05-05 03:09 | 20.13214 | -71.03516 | 26175 ft | 411 kts | 308° |
| 2026-05-05 03:09 | 20.15064 | -71.05834 | 26507 ft | 412 kts | 308° |
| 2026-05-05 03:09 | 20.16921 | -71.08159 | 26831 ft | 414 kts | 308° |
| 2026-05-05 03:09 | 20.18795 | -71.10506 | 27147 ft | 416 kts | 308° |
| 2026-05-05 03:10 | 20.20673 | -71.12859 | 27459 ft | 418 kts | 307° |
| 2026-05-05 03:10 | 20.22552 | -71.15215 | 27769 ft | 420 kts | 307° |
| 2026-05-05 03:10 | 20.24445 | -71.17593 | 28076 ft | 422 kts | 307° |
| 2026-05-05 03:10 | 20.26351 | -71.19992 | 28386 ft | 424 kts | 307° |
| 2026-05-05 03:11 | 20.28262 | -71.22392 | 28696 ft | 426 kts | 307° |
| 2026-05-05 03:11 | 20.30183 | -71.24803 | 29011 ft | 428 kts | 307° |
| 2026-05-05 03:11 | 20.32113 | -71.27226 | 29325 ft | 430 kts | 307° |
| 2026-05-05 03:11 | 20.34051 | -71.29661 | 29653 ft | 432 kts | 307° |
| 2026-05-05 03:12 | 20.35991 | -71.32104 | 29982 ft | 434 kts | 306° |
| 2026-05-05 03:12 | 20.37966 | -71.34593 | 30278 ft | 436 kts | 306° |
| 2026-05-05 03:12 | 20.39905 | -71.37035 | 30562 ft | 437 kts | 306° |
| 2026-05-05 03:12 | 20.41870 | -71.39510 | 30859 ft | 438 kts | 306° |
| 2026-05-05 03:13 | 20.43809 | -71.42014 | 31154 ft | 438 kts | 305° |
| 2026-05-05 03:13 | 20.45713 | -71.44549 | 31439 ft | 438 kts | 304° |
| 2026-05-05 03:13 | 20.46990 | -71.46278 | 31658 ft | 439 kts | 304° |
| 2026-05-05 03:13 | 20.49480 | -71.49672 | 32046 ft | 440 kts | 304° |
| 2026-05-05 03:14 | 20.50751 | -71.51407 | 32289 ft | 439 kts | 304° |
| 2026-05-05 03:14 | 20.52637 | -71.53969 | 32733 ft | 437 kts | 304° |
| 2026-05-05 03:14 | 20.54508 | -71.56495 | 33209 ft | 434 kts | 304° |
| 2026-05-05 03:14 | 20.56380 | -71.59011 | 33724 ft | 430 kts | 304° |
| 2026-05-05 03:15 | 20.58237 | -71.61504 | 34009 ft | 428 kts | 304° |
| 2026-05-05 03:15 | 20.60069 | -71.63956 | 34043 ft | 416 kts | 304° |
| 2026-05-05 03:15 | 20.61853 | -71.66340 | 34048 ft | 407 kts | 304° |
| 2026-05-05 03:16 | 20.65346 | -71.71032 | 34042 ft | 402 kts | 304° |
| 2026-05-05 03:16 | 20.68810 | -71.75713 | 34046 ft | 401 kts | 304° |
| 2026-05-05 03:17 | 20.72274 | -71.80393 | 34050 ft | 401 kts | 304° |
| 2026-05-05 03:17 | 20.75720 | -71.85047 | 34049 ft | 401 kts | 304° |
| 2026-05-05 03:18 | 20.79180 | -71.89725 | 34055 ft | 401 kts | 304° |
| 2026-05-05 03:18 | 20.82636 | -71.94398 | 34081 ft | 400 kts | 303° |
| 2026-05-05 03:19 | 20.87791 | -72.01384 | 34081 ft | 399 kts | 303° |
| 2026-05-05 03:19 | 20.91233 | -72.06055 | 34080 ft | 399 kts | 303° |
| 2026-05-05 03:20 | 20.94660 | -72.10709 | 34078 ft | 399 kts | 303° |
| 2026-05-05 03:20 | 20.98129 | -72.15406 | 34078 ft | 399 kts | 303° |
| 2026-05-05 03:21 | 21.01544 | -72.20039 | 34077 ft | 399 kts | 303° |
| 2026-05-05 03:21 | 21.04988 | -72.24733 | 34078 ft | 399 kts | 303° |
| 2026-05-05 03:22 | 21.08424 | -72.29402 | 34080 ft | 399 kts | 303° |
| 2026-05-05 03:22 | 21.11852 | -72.34065 | 34084 ft | 399 kts | 303° |
| 2026-05-05 03:23 | 21.15287 | -72.38728 | 34084 ft | 399 kts | 303° |
| 2026-05-05 03:23 | 21.18717 | -72.43395 | 34084 ft | 398 kts | 303° |
| 2026-05-05 03:24 | 21.22129 | -72.48068 | 34099 ft | 398 kts | 303° |
| 2026-05-05 03:24 | 21.25552 | -72.52750 | 34099 ft | 398 kts | 303° |
| 2026-05-05 03:25 | 21.28963 | -72.57410 | 34099 ft | 398 kts | 303° |
| 2026-05-05 03:25 | 21.32387 | -72.62090 | 34105 ft | 398 kts | 303° |
| 2026-05-05 03:26 | 21.35800 | -72.66768 | 34105 ft | 398 kts | 303° |
| 2026-05-05 03:26 | 21.39213 | -72.71446 | 34105 ft | 398 kts | 303° |
| 2026-05-05 03:27 | 21.42621 | -72.76122 | 34105 ft | 398 kts | 303° |
| 2026-05-05 03:27 | 21.46031 | -72.80800 | 34105 ft | 398 kts | 303° |
| 2026-05-05 03:28 | 21.49436 | -72.85482 | 34105 ft | 398 kts | 303° |
| 2026-05-05 03:28 | 21.52837 | -72.90158 | 34105 ft | 398 kts | 303° |
| 2026-05-05 03:29 | 21.56264 | -72.94880 | 34118 ft | 398 kts | 302° |
| 2026-05-05 03:29 | 21.59637 | -72.99545 | 34128 ft | 398 kts | 302° |
| 2026-05-05 03:30 | 21.63056 | -73.04271 | 34128 ft | 398 kts | 302° |
| 2026-05-05 03:30 | 21.66456 | -73.08971 | 34128 ft | 398 kts | 302° |
| 2026-05-05 03:31 | 21.69790 | -73.13582 | 34131 ft | 398 kts | 302° |
| 2026-05-05 03:31 | 21.73167 | -73.18249 | 34131 ft | 398 kts | 302° |
| 2026-05-05 03:32 | 21.76591 | -73.22984 | 34131 ft | 398 kts | 302° |
| 2026-05-05 03:32 | 21.79966 | -73.27656 | 34131 ft | 398 kts | 302° |
| 2026-05-05 03:33 | 21.83393 | -73.32396 | 34137 ft | 398 kts | 302° |
| 2026-05-05 03:33 | 21.86765 | -73.37072 | 34137 ft | 398 kts | 302° |
| 2026-05-05 03:34 | 21.90174 | -73.41802 | 34137 ft | 398 kts | 302° |
| 2026-05-05 03:34 | 21.93526 | -73.46472 | 34161 ft | 397 kts | 301° |
| 2026-05-05 03:35 | 21.96895 | -73.51154 | 34161 ft | 397 kts | 302° |
| 2026-05-05 03:35 | 22.00278 | -73.55853 | 34161 ft | 397 kts | 301° |
| 2026-05-05 03:36 | 22.03508 | -73.60361 | 34160 ft | 397 kts | 301° |
| 2026-05-05 03:36 | 22.06924 | -73.65148 | 34161 ft | 397 kts | 301° |
| 2026-05-05 03:37 | 22.10297 | -73.69853 | 34173 ft | 395 kts | 301° |
| 2026-05-05 03:37 | 22.13677 | -73.74565 | 34173 ft | 395 kts | 301° |
| 2026-05-05 03:38 | 22.17035 | -73.79258 | 34169 ft | 395 kts | 301° |
| 2026-05-05 03:38 | 22.20389 | -73.83951 | 34170 ft | 395 kts | 301° |
| 2026-05-05 03:39 | 22.23747 | -73.88650 | 34148 ft | 395 kts | 301° |
| 2026-05-05 03:39 | 22.27107 | -73.93354 | 34146 ft | 395 kts | 301° |
| 2026-05-05 03:40 | 22.30450 | -73.98056 | 34167 ft | 395 kts | 301° |
| 2026-05-05 03:40 | 22.33802 | -74.02767 | 33999 ft | 403 kts | 301° |
| 2026-05-05 03:41 | 22.35517 | -74.05183 | 33868 ft | 408 kts | 301° |
| 2026-05-05 03:41 | 22.37245 | -74.07613 | 33835 ft | 407 kts | 301° |
| 2026-05-05 03:41 | 22.38949 | -74.10009 | 34005 ft | 411 kts | 301° |
| 2026-05-05 03:41 | 22.40689 | -74.12454 | 34114 ft | 411 kts | 301° |
| 2026-05-05 03:42 | 22.44182 | -74.17370 | 34184 ft | 412 kts | 301° |
| 2026-05-05 03:42 | 22.47671 | -74.22288 | 34090 ft | 412 kts | 301° |
| 2026-05-05 03:43 | 22.51156 | -74.27200 | 34046 ft | 411 kts | 301° |
| 2026-05-05 03:43 | 22.54629 | -74.32109 | 34046 ft | 411 kts | 301° |
| 2026-05-05 03:44 | 22.58107 | -74.37031 | 34052 ft | 412 kts | 302° |
| 2026-05-05 03:44 | 22.61582 | -74.41950 | 34046 ft | 412 kts | 302° |
| 2026-05-05 03:45 | 22.65077 | -74.46892 | 34045 ft | 413 kts | 302° |
| 2026-05-05 03:45 | 22.68571 | -74.51842 | 34044 ft | 414 kts | 301° |
| 2026-05-05 03:46 | 22.72064 | -74.56801 | 34044 ft | 414 kts | 301° |
| 2026-05-05 03:46 | 22.75562 | -74.61769 | 34041 ft | 414 kts | 301° |
| 2026-05-05 03:47 | 22.79056 | -74.66735 | 34040 ft | 414 kts | 301° |
| 2026-05-05 03:47 | 22.82548 | -74.71702 | 34039 ft | 414 kts | 301° |
| 2026-05-05 03:48 | 22.85468 | -74.75860 | 34044 ft | 414 kts | 301° |
| 2026-05-05 03:48 | 22.88899 | -74.80755 | 34044 ft | 414 kts | 301° |
| 2026-05-05 03:49 | 22.92387 | -74.85729 | 34043 ft | 414 kts | 301° |
| 2026-05-05 03:49 | 22.95876 | -74.90703 | 34041 ft | 414 kts | 301° |
| 2026-05-05 03:50 | 22.99357 | -74.95680 | 34041 ft | 414 kts | 301° |
| 2026-05-05 03:50 | 23.02845 | -75.00671 | 34064 ft | 414 kts | 301° |
| 2026-05-05 03:51 | 23.06353 | -75.05693 | 34045 ft | 415 kts | 301° |
| 2026-05-05 03:51 | 23.09931 | -75.10572 | 34042 ft | 418 kts | 306° |
| 2026-05-05 03:52 | 23.13879 | -75.15252 | 34043 ft | 417 kts | 306° |
| 2026-05-05 03:52 | 23.17798 | -75.19917 | 34039 ft | 418 kts | 306° |
| 2026-05-05 03:53 | 23.21711 | -75.24575 | 34043 ft | 418 kts | 306° |
| 2026-05-05 03:53 | 23.25631 | -75.29242 | 34041 ft | 418 kts | 306° |
| 2026-05-05 03:54 | 23.29517 | -75.33880 | 34042 ft | 417 kts | 306° |
| 2026-05-05 03:54 | 23.33455 | -75.38578 | 34045 ft | 417 kts | 306° |
| 2026-05-05 03:55 | 23.37358 | -75.43234 | 34034 ft | 418 kts | 306° |
| 2026-05-05 03:55 | 23.41294 | -75.47935 | 34039 ft | 420 kts | 305° |
| 2026-05-05 03:56 | 23.45213 | -75.52622 | 34036 ft | 420 kts | 305° |
| 2026-05-05 03:56 | 23.49160 | -75.57339 | 34036 ft | 420 kts | 305° |
| 2026-05-05 03:57 | 23.53093 | -75.62047 | 34032 ft | 420 kts | 305° |
| 2026-05-05 03:57 | 23.57023 | -75.66764 | 34035 ft | 420 kts | 304° |
| 2026-05-05 03:58 | 23.60929 | -75.71466 | 34032 ft | 420 kts | 304° |
| 2026-05-05 03:58 | 23.64867 | -75.76188 | 34034 ft | 420 kts | 305° |
| 2026-05-05 03:59 | 23.68829 | -75.80943 | 34038 ft | 419 kts | 304° |
| 2026-05-05 03:59 | 23.72704 | -75.85623 | 34034 ft | 419 kts | 304° |
| 2026-05-05 04:00 | 23.76628 | -75.90360 | 34038 ft | 419 kts | 304° |
| 2026-05-05 04:00 | 23.80520 | -75.95048 | 34038 ft | 418 kts | 304° |
| 2026-05-05 04:01 | 23.84423 | -75.99765 | 34033 ft | 418 kts | 304° |
| 2026-05-05 04:01 | 23.88347 | -76.04503 | 34033 ft | 418 kts | 304° |
| 2026-05-05 04:02 | 23.92247 | -76.09225 | 34033 ft | 418 kts | 304° |
| 2026-05-05 04:02 | 23.96142 | -76.13948 | 34032 ft | 418 kts | 304° |
| 2026-05-05 04:03 | 24.00022 | -76.18640 | 34034 ft | 413 kts | 304° |
| 2026-05-05 04:03 | 24.01930 | -76.20940 | 34024 ft | 401 kts | 304° |
| 2026-05-05 04:03 | 24.03795 | -76.23190 | 34030 ft | 396 kts | 303° |
| 2026-05-05 04:04 | 24.07458 | -76.27652 | 34031 ft | 393 kts | 303° |
| 2026-05-05 04:04 | 24.11102 | -76.32107 | 34031 ft | 393 kts | 303° |
| 2026-05-05 04:05 | 24.14767 | -76.36568 | 34029 ft | 393 kts | 303° |
| 2026-05-05 04:05 | 24.18451 | -76.41033 | 34029 ft | 393 kts | 303° |
| 2026-05-05 04:06 | 24.22097 | -76.45469 | 34028 ft | 393 kts | 303° |
| 2026-05-05 04:06 | 24.25752 | -76.49933 | 34032 ft | 393 kts | 303° |
| 2026-05-05 04:07 | 24.29426 | -76.54415 | 34053 ft | 392 kts | 303° |
| 2026-05-05 04:07 | 24.33057 | -76.58845 | 34056 ft | 389 kts | 303° |
| 2026-05-05 04:08 | 24.36672 | -76.63262 | 34055 ft | 388 kts | 303° |
| 2026-05-05 04:08 | 24.40273 | -76.67665 | 34052 ft | 387 kts | 303° |
| 2026-05-05 04:09 | 24.43855 | -76.72052 | 34054 ft | 384 kts | 303° |
| 2026-05-05 04:09 | 24.47401 | -76.76409 | 34039 ft | 382 kts | 303° |
| 2026-05-05 04:10 | 24.50943 | -76.80775 | 34031 ft | 383 kts | 303° |
| 2026-05-05 04:10 | 24.54494 | -76.85139 | 34045 ft | 383 kts | 303° |
| 2026-05-05 04:11 | 24.58046 | -76.89509 | 34052 ft | 383 kts | 305° |
| 2026-05-05 04:11 | 24.61563 | -76.93838 | 34051 ft | 382 kts | 305° |
| 2026-05-05 04:12 | 24.65105 | -76.98208 | 34053 ft | 381 kts | 304° |
| 2026-05-05 04:12 | 24.68630 | -77.02563 | 34037 ft | 380 kts | 304° |
| 2026-05-05 04:13 | 24.72142 | -77.06897 | 34054 ft | 380 kts | 304° |
| 2026-05-05 04:13 | 24.75654 | -77.11237 | 34054 ft | 380 kts | 304° |
| 2026-05-05 04:14 | 24.79155 | -77.15569 | 34056 ft | 378 kts | 305° |
| 2026-05-05 04:14 | 24.82641 | -77.19884 | 34054 ft | 377 kts | 305° |
| 2026-05-05 04:15 | 24.86136 | -77.24213 | 34058 ft | 377 kts | 306° |
| 2026-05-05 04:15 | 24.89608 | -77.28514 | 34066 ft | 376 kts | 306° |
| 2026-05-05 04:16 | 24.93071 | -77.32820 | 34070 ft | 375 kts | 306° |
| 2026-05-05 04:16 | 24.96509 | -77.37096 | 34074 ft | 374 kts | 306° |
| 2026-05-05 04:17 | 24.99961 | -77.41393 | 34075 ft | 374 kts | 306° |
| 2026-05-05 04:17 | 25.03018 | -77.45942 | 34076 ft | 365 kts | 292° |
| 2026-05-05 04:18 | 25.04955 | -77.51065 | 34069 ft | 364 kts | 289° |
| 2026-05-05 04:18 | 25.06899 | -77.56214 | 34069 ft | 364 kts | 290° |
| 2026-05-05 04:19 | 25.08843 | -77.61389 | 34066 ft | 363 kts | 290° |
| 2026-05-05 04:19 | 25.10778 | -77.66555 | 34059 ft | 363 kts | 290° |
| 2026-05-05 04:20 | 25.12683 | -77.71665 | 34057 ft | 362 kts | 290° |
| 2026-05-05 04:20 | 25.14594 | -77.76798 | 34054 ft | 361 kts | 290° |
| 2026-05-05 04:21 | 25.16505 | -77.81935 | 33834 ft | 371 kts | 290° |
| 2026-05-05 04:21 | 25.17492 | -77.84584 | 33567 ft | 374 kts | 290° |
| 2026-05-05 04:21 | 25.18149 | -77.86346 | 33399 ft | 375 kts | 290° |
| 2026-05-05 04:22 | 25.19139 | -77.89001 | 33148 ft | 374 kts | 290° |
| 2026-05-05 04:22 | 25.20128 | -77.91655 | 32891 ft | 373 kts | 290° |
| 2026-05-05 04:22 | 25.21103 | -77.94274 | 32644 ft | 372 kts | 290° |
| 2026-05-05 04:22 | 25.22076 | -77.96892 | 32388 ft | 371 kts | 291° |
| 2026-05-05 04:23 | 25.23048 | -77.99512 | 32141 ft | 370 kts | 290° |
| 2026-05-05 04:23 | 25.24032 | -78.02177 | 31891 ft | 368 kts | 290° |
| 2026-05-05 04:23 | 25.24988 | -78.04763 | 31649 ft | 367 kts | 290° |
| 2026-05-05 04:23 | 25.25952 | -78.07376 | 31409 ft | 367 kts | 290° |
| 2026-05-05 04:24 | 25.26923 | -78.10012 | 31165 ft | 366 kts | 290° |
| 2026-05-05 04:24 | 25.27881 | -78.12615 | 30933 ft | 365 kts | 290° |
| 2026-05-05 04:24 | 25.28837 | -78.15207 | 30691 ft | 364 kts | 290° |
| 2026-05-05 04:25 | 25.30746 | -78.20338 | 30231 ft | 362 kts | 291° |
| 2026-05-05 04:25 | 25.31762 | -78.22917 | 29987 ft | 362 kts | 292° |
| 2026-05-05 04:25 | 25.32776 | -78.25420 | 29712 ft | 361 kts | 292° |
| 2026-05-05 04:25 | 25.33822 | -78.27978 | 29436 ft | 359 kts | 292° |
| 2026-05-05 04:26 | 25.34834 | -78.30458 | 29172 ft | 358 kts | 292° |
| 2026-05-05 04:26 | 25.35849 | -78.32968 | 28905 ft | 357 kts | 291° |
| 2026-05-05 04:26 | 25.36849 | -78.35455 | 28636 ft | 355 kts | 291° |
| 2026-05-05 04:26 | 25.37866 | -78.37995 | 28381 ft | 354 kts | 291° |
| 2026-05-05 04:27 | 25.38845 | -78.40443 | 28121 ft | 353 kts | 291° |
| 2026-05-05 04:27 | 25.39819 | -78.42886 | 27878 ft | 351 kts | 291° |
| 2026-05-05 04:27 | 25.40797 | -78.45339 | 27537 ft | 346 kts | 291° |
| 2026-05-05 04:27 | 25.41762 | -78.47776 | 27123 ft | 344 kts | 291° |
| 2026-05-05 04:28 | 25.42696 | -78.50187 | 26719 ft | 341 kts | 290° |
| 2026-05-05 04:28 | 25.43618 | -78.52594 | 26314 ft | 339 kts | 290° |
| 2026-05-05 04:28 | 25.44531 | -78.54989 | 25915 ft | 336 kts | 290° |
| 2026-05-05 04:28 | 25.45438 | -78.57363 | 25503 ft | 334 kts | 290° |
| 2026-05-05 04:29 | 25.46342 | -78.59728 | 25099 ft | 332 kts | 290° |
| 2026-05-05 04:29 | 25.47242 | -78.62085 | 24684 ft | 331 kts | 290° |
| 2026-05-05 04:29 | 25.48133 | -78.64414 | 24264 ft | 329 kts | 289° |
| 2026-05-05 04:29 | 25.49027 | -78.66748 | 23855 ft | 328 kts | 289° |
| 2026-05-05 04:30 | 25.49918 | -78.69070 | 23400 ft | 327 kts | 290° |
| 2026-05-05 04:30 | 25.50807 | -78.71389 | 22943 ft | 325 kts | 290° |
| 2026-05-05 04:30 | 25.51682 | -78.73672 | 22546 ft | 322 kts | 289° |
| 2026-05-05 04:30 | 25.52555 | -78.75953 | 22097 ft | 321 kts | 289° |
| 2026-05-05 04:31 | 25.53420 | -78.78218 | 21670 ft | 319 kts | 289° |
| 2026-05-05 04:31 | 25.54280 | -78.80473 | 21244 ft | 317 kts | 289° |
| 2026-05-05 04:31 | 25.55136 | -78.82715 | 20817 ft | 315 kts | 289° |
| 2026-05-05 04:31 | 25.55983 | -78.84938 | 20397 ft | 313 kts | 289° |
| 2026-05-05 04:32 | 25.56825 | -78.87154 | 19975 ft | 312 kts | 289° |
| 2026-05-05 04:32 | 25.57663 | -78.89363 | 19563 ft | 310 kts | 289° |
| 2026-05-05 04:32 | 25.58503 | -78.91566 | 19150 ft | 309 kts | 290° |
| 2026-05-05 04:32 | 25.59336 | -78.93755 | 18754 ft | 308 kts | 290° |
| 2026-05-05 04:33 | 25.60166 | -78.95937 | 18337 ft | 307 kts | 290° |
| 2026-05-05 04:33 | 25.60986 | -78.98104 | 17889 ft | 306 kts | 290° |
| 2026-05-05 04:33 | 25.61802 | -79.00262 | 17456 ft | 304 kts | 290° |
| 2026-05-05 04:33 | 25.62620 | -79.02416 | 17049 ft | 303 kts | 290° |
| 2026-05-05 04:34 | 25.63433 | -79.04553 | 16644 ft | 301 kts | 290° |
| 2026-05-05 04:34 | 25.64241 | -79.06686 | 16264 ft | 300 kts | 290° |
| 2026-05-05 04:34 | 25.65047 | -79.08816 | 15856 ft | 299 kts | 290° |
| 2026-05-05 04:34 | 25.65850 | -79.10942 | 15455 ft | 299 kts | 290° |
| 2026-05-05 04:35 | 25.66654 | -79.13075 | 15075 ft | 298 kts | 290° |
| 2026-05-05 04:35 | 25.67459 | -79.15224 | 14681 ft | 298 kts | 289° |
| 2026-05-05 04:35 | 25.68242 | -79.17329 | 14299 ft | 299 kts | 289° |
| 2026-05-05 04:35 | 25.69047 | -79.19487 | 13909 ft | 299 kts | 289° |
| 2026-05-05 04:36 | 25.69843 | -79.21616 | 13480 ft | 299 kts | 290° |
| 2026-05-05 04:36 | 25.70636 | -79.23737 | 13100 ft | 298 kts | 290° |
| 2026-05-05 04:36 | 25.71422 | -79.25835 | 12724 ft | 297 kts | 290° |
| 2026-05-05 04:36 | 25.72219 | -79.27960 | 12346 ft | 296 kts | 290° |
| 2026-05-05 04:37 | 25.73001 | -79.30048 | 11967 ft | 295 kts | 290° |
| 2026-05-05 04:37 | 25.73778 | -79.32141 | 11599 ft | 294 kts | 289° |
| 2026-05-05 04:37 | 25.74550 | -79.34241 | 11225 ft | 293 kts | 289° |
| 2026-05-05 04:37 | 25.75315 | -79.36334 | 10853 ft | 293 kts | 289° |
| 2026-05-05 04:38 | 25.76078 | -79.38425 | 10483 ft | 292 kts | 289° |
| 2026-05-05 04:38 | 25.76836 | -79.40506 | 10219 ft | 288 kts | 289° |
| 2026-05-05 04:38 | 25.77578 | -79.42536 | 10019 ft | 281 kts | 289° |
| 2026-05-05 04:38 | 25.78307 | -79.44531 | 9964 ft | 279 kts | 289° |
| 2026-05-05 04:39 | 25.79042 | -79.46543 | 9642 ft | 283 kts | 289° |
| 2026-05-05 04:39 | 25.79781 | -79.48568 | 9272 ft | 282 kts | 290° |
| 2026-05-05 04:39 | 25.80518 | -79.50586 | 8863 ft | 283 kts | 290° |
| 2026-05-05 04:39 | 25.81251 | -79.52597 | 8490 ft | 280 kts | 290° |
| 2026-05-05 04:40 | 25.81973 | -79.54581 | 8017 ft | 275 kts | 290° |
| 2026-05-05 04:40 | 25.82691 | -79.56544 | 7612 ft | 277 kts | 290° |
| 2026-05-05 04:40 | 25.83420 | -79.58535 | 7215 ft | 279 kts | 290° |
| 2026-05-05 04:40 | 25.84145 | -79.60519 | 6865 ft | 275 kts | 291° |
| 2026-05-05 04:41 | 25.84871 | -79.62463 | 6432 ft | 271 kts | 291° |
| 2026-05-05 04:41 | 25.85595 | -79.64381 | 6049 ft | 269 kts | 292° |
| 2026-05-05 04:41 | 25.86349 | -79.66250 | 5994 ft | 269 kts | 293° |
| 2026-05-05 04:41 | 25.87155 | -79.68130 | 5998 ft | 269 kts | 294° |
| 2026-05-05 04:42 | 25.87969 | -79.69987 | 5998 ft | 268 kts | 295° |
| 2026-05-05 04:42 | 25.88794 | -79.71865 | 6000 ft | 271 kts | 295° |
| 2026-05-05 04:42 | 25.89615 | -79.73738 | 6004 ft | 269 kts | 295° |
| 2026-05-05 04:42 | 25.90433 | -79.75630 | 6005 ft | 273 kts | 295° |
| 2026-05-05 04:43 | 25.91250 | -79.77531 | 6004 ft | 273 kts | 295° |
| 2026-05-05 04:43 | 25.92067 | -79.79441 | 6005 ft | 274 kts | 294° |
| 2026-05-05 04:43 | 25.92883 | -79.81351 | 6003 ft | 273 kts | 294° |
| 2026-05-05 04:43 | 25.93691 | -79.83245 | 6005 ft | 270 kts | 294° |
| 2026-05-05 04:44 | 25.94496 | -79.85133 | 6007 ft | 271 kts | 293° |
| 2026-05-05 04:44 | 25.95294 | -79.87013 | 6005 ft | 271 kts | 294° |
| 2026-05-05 04:44 | 25.96101 | -79.88917 | 6006 ft | 271 kts | 294° |
| 2026-05-05 04:44 | 25.96909 | -79.90822 | 6008 ft | 272 kts | 293° |
| 2026-05-05 04:45 | 25.97713 | -79.92717 | 6006 ft | 271 kts | 294° |
| 2026-05-05 04:45 | 25.98532 | -79.94610 | 6008 ft | 271 kts | 297° |
| 2026-05-05 04:45 | 25.99638 | -79.96299 | 6010 ft | 272 kts | 310° |
| 2026-05-05 04:45 | 26.00911 | -79.97859 | 6011 ft | 272 kts | 310° |
| 2026-05-05 04:46 | 26.02177 | -79.99416 | 6008 ft | 273 kts | 310° |
| 2026-05-05 04:46 | 26.03454 | -80.00992 | 6009 ft | 274 kts | 311° |
| 2026-05-05 04:46 | 26.04728 | -80.02565 | 6009 ft | 273 kts | 310° |
| 2026-05-05 04:46 | 26.06000 | -80.04137 | 6007 ft | 273 kts | 310° |
| 2026-05-05 04:47 | 26.07271 | -80.05707 | 6011 ft | 273 kts | 311° |
| 2026-05-05 04:47 | 26.08539 | -80.07274 | 6010 ft | 272 kts | 310° |
| 2026-05-05 04:47 | 26.09802 | -80.08838 | 6009 ft | 273 kts | 310° |
| 2026-05-05 04:47 | 26.11068 | -80.10408 | 6008 ft | 272 kts | 309° |
| 2026-05-05 04:48 | 26.12337 | -80.11982 | 6007 ft | 274 kts | 310° |
| 2026-05-05 04:48 | 26.13600 | -80.13563 | 6009 ft | 273 kts | 307° |
| 2026-05-05 04:48 | 26.14568 | -80.15363 | 6018 ft | 270 kts | 290° |
| 2026-05-05 04:48 | 26.15021 | -80.17380 | 5929 ft | 270 kts | 274° |
| 2026-05-05 04:49 | 26.15054 | -80.19436 | 5812 ft | 270 kts | 269° |
| 2026-05-05 04:49 | 26.15059 | -80.21524 | 5703 ft | 271 kts | 269° |
| 2026-05-05 04:49 | 26.15067 | -80.23626 | 5576 ft | 271 kts | 270° |
| 2026-05-05 04:49 | 26.15075 | -80.25705 | 5478 ft | 264 kts | 269° |
| 2026-05-05 04:50 | 26.15096 | -80.27747 | 5150 ft | 265 kts | 270° |
| 2026-05-05 04:50 | 26.15117 | -80.29768 | 5025 ft | 256 kts | 269° |
| 2026-05-05 04:50 | 26.15122 | -80.31707 | 4962 ft | 245 kts | 269° |
| 2026-05-05 04:50 | 26.15111 | -80.33576 | 4794 ft | 238 kts | 269° |
| 2026-05-05 04:51 | 26.15087 | -80.35413 | 4520 ft | 236 kts | 268° |
| 2026-05-05 04:51 | 26.15056 | -80.37229 | 4240 ft | 234 kts | 268° |
| 2026-05-05 04:51 | 26.15021 | -80.39030 | 4049 ft | 231 kts | 268° |
| 2026-05-05 04:51 | 26.14971 | -80.40819 | 4005 ft | 231 kts | 265° |
| 2026-05-05 04:52 | 26.14528 | -80.42511 | 4005 ft | 228 kts | 234° |
| 2026-05-05 04:52 | 26.13357 | -80.43645 | 4002 ft | 225 kts | 200° |
| 2026-05-05 04:52 | 26.11837 | -80.43998 | 4002 ft | 223 kts | 177° |
| 2026-05-05 04:52 | 26.10336 | -80.43692 | 4001 ft | 221 kts | 156° |
| 2026-05-05 04:53 | 26.09057 | -80.42797 | 3996 ft | 212 kts | 135° |
| 2026-05-05 04:53 | 26.08217 | -80.41546 | 3988 ft | 196 kts | 115° |
| 2026-05-05 04:53 | 26.07831 | -80.40143 | 3941 ft | 185 kts | 96° |
| 2026-05-05 04:53 | 26.07792 | -80.38732 | 3764 ft | 182 kts | 90° |
| 2026-05-05 04:54 | 26.07790 | -80.37375 | 3561 ft | 180 kts | 90° |
| 2026-05-05 04:54 | 26.07786 | -80.36027 | 3353 ft | 179 kts | 90° |
| 2026-05-05 04:54 | 26.07781 | -80.34665 | 3125 ft | 179 kts | 90° |
| 2026-05-05 04:54 | 26.07776 | -80.33291 | 2894 ft | 178 kts | 90° |
| 2026-05-05 04:55 | 26.07770 | -80.31963 | 2671 ft | 177 kts | 90° |
| 2026-05-05 04:55 | 26.07764 | -80.30565 | 2438 ft | 176 kts | 90° |
| 2026-05-05 04:55 | 26.07758 | -80.29241 | 2229 ft | 171 kts | 90° |
| 2026-05-05 04:55 | 26.07752 | -80.27943 | 1993 ft | 166 kts | 90° |
| 2026-05-05 04:56 | 26.07746 | -80.26670 | 1769 ft | 161 kts | 89° |
| 2026-05-05 04:56 | 26.07740 | -80.25441 | 1564 ft | 157 kts | 89° |
| 2026-05-05 04:56 | 26.07734 | -80.24259 | 1373 ft | 151 kts | 89° |
| 2026-05-05 04:56 | 26.07728 | -80.23151 | 1182 ft | 134 kts | 90° |
| 2026-05-05 04:57 | 26.07723 | -80.22166 | 1000 ft | 122 kts | 89° |
| 2026-05-05 04:57 | 26.07718 | -80.21233 | 852 ft | 119 kts | 90° |
| 2026-05-05 04:57 | 26.07714 | -80.20311 | 711 ft | 118 kts | 88° |
| 2026-05-05 04:57 | 26.07708 | -80.19388 | 562 ft | 121 kts | 88° |
| 2026-05-05 04:58 | 26.07680 | -80.18449 | 388 ft | 123 kts | 88° |
| 2026-05-05 04:58 | 26.07687 | -80.17500 | 275 ft | 124 kts | 86° |
| 2026-05-05 04:58 | 26.07700 | -80.16562 | 54 ft | 121 kts | 89° |
| 2026-05-05 04:58 | 26.07704 | -80.15706 | 22 ft | 94 kts | 94° |
| 2026-05-05 04:59 | 26.07688 | -80.15315 | 18 ft | 18 kts | 89° |
| 2026-05-05 04:59 | 26.07635 | -80.15130 | 16 ft | 29 kts | 156° |
| 2026-05-05 04:59 | 26.07508 | -80.15102 | 19 ft | 12 kts | 122° |
| 2026-05-05 04:59 | 26.07472 | -80.15024 | 20 ft | 13 kts | 126° |
| 2026-05-05 05:00 | 26.07417 | -80.14972 | 21 ft | 0 kts | 137° |
| 2026-05-05 05:00 | 26.07393 | -80.14940 | 21 ft | 12 kts | 129° |
| 2026-05-05 05:00 | 26.07357 | -80.14851 | 21 ft | 14 kts | 83° |
| 2026-05-05 05:00 | 26.07346 | -80.14778 | 23 ft | 15 kts | 105° |
| 2026-05-05 05:01 | 26.07341 | -80.14754 | 22 ft | 0 kts | 105° |